Polson, Montana
Current Conditions -  °F | °C
As of 4:55 PM on Friday 19 Dec 2014 (Local Time) from KGPI Reporting Station
Light Rain Light Rain  
Wind Chill: 27°   Ceiling: 3400
Heat Index: 35°   Visibility: 10mi
Dew Point: 34°   Wind: 10mph
Humidity: 96%   Direction: 170°S
Pressure: 29.89"   Gusts: NA
Location:  47.69°N, 114.16°W
Report Text: KGPI 192355Z 17009KT 10SM -RA FEW008 SCT015 OVC034 02/01 A2989 RMK AO2 SLP145 P0002 60014 T00170011 10017 20006 53009 $
Loading
Personal Weather Stations






























Interactive Weather Map New forecast layout! Learn more

10-Day Weather Forecast

Advertisements
Track Severe Weather on mobile